Time;durP1;ratioP1;P1;durP2;ratioP2;P2;SDS_P1;SDS_P2;PMS_P1;PMS_P2;Temp;Humidity;BMP_temperature;BMP_pressure;BME280_temperature;BME280_humidity;BME280_pressure;Samples;Min_cycle;Max_cycle;Signal;HPM_P1;HPM_P2
2021/08/17 00:01:07;;;;;;;17.27;6.38;;;;;;;11.39;84.39;101543.19;4997506;28;20045;-72
2021/08/17 00:03:33;;;;;;;22.85;8.43;;;;;;;11.48;84.47;101543.16;4971876;28;20041;-73
2021/08/17 00:06:01;;;;;;;27.73;8.30;;;;;;;11.55;84.34;101542.59;4983205;28;20030;-72
2021/08/17 00:08:27;;;;;;;23.15;7.05;;;;;;;11.45;84.37;101545.22;4988488;28;20038;-73
2021/08/17 00:10:52;;;;;;;25.55;8.95;;;;;;;11.47;84.73;101540.69;4992989;28;20044;-72
2021/08/17 00:13:18;;;;;;;23.00;7.55;;;;;;;11.44;85.12;101546.19;5010679;28;20034;-73
2021/08/17 00:15:43;;;;;;;28.23;9.25;;;;;;;11.45;84.96;101550.41;4982742;28;20491;-72
2021/08/17 00:18:09;;;;;;;27.38;9.00;;;;;;;11.40;85.69;101550.84;4987917;28;20104;-73
2021/08/17 00:20:34;;;;;;;26.33;8.95;;;;;;;11.50;85.17;101546.41;5006403;28;20053;-72
2021/08/17 00:22:59;;;;;;;26.50;9.27;;;;;;;11.46;85.17;101545.06;4997554;28;20073;-74
2021/08/17 00:25:25;;;;;;;23.25;9.13;;;;;;;11.42;85.35;101548.94;4986175;28;20030;-72
2021/08/17 00:27:51;;;;;;;28.30;9.23;;;;;;;11.46;85.79;101559.84;5000507;28;20037;-72
2021/08/17 00:30:16;;;;;;;26.60;9.70;;;;;;;11.48;85.98;101544.94;4998958;28;20101;-73
2021/08/17 00:32:42;;;;;;;30.08;9.43;;;;;;;11.39;85.65;101543.19;5010870;28;20388;-73
2021/08/17 00:35:08;;;;;;;26.45;9.32;;;;;;;11.39;85.96;101538.00;5002151;28;20033;-73
2021/08/17 00:37:33;;;;;;;40.33;10.70;;;;;;;11.38;85.51;101544.19;5013296;28;20050;-72
2021/08/17 00:40:02;;;;;;;32.47;11.38;;;;;;;11.49;85.43;101544.81;5004409;28;20511;-74
2021/08/17 00:42:37;;;;;;;36.10;11.48;;;;;;;11.54;85.55;101549.56;4986921;28;20681;-73
2021/08/17 00:45:03;;;;;;;30.90;11.20;;;;;;;11.43;86.14;101547.97;4984559;28;20033;-74
2021/08/17 00:47:29;;;;;;;35.45;13.18;;;;;;;11.42;86.06;101543.72;4981024;28;20092;-73
2021/08/17 00:49:54;;;;;;;38.25;13.55;;;;;;;11.38;86.33;101537.19;4980629;28;20034;-75
2021/08/17 00:52:20;;;;;;;42.47;14.27;;;;;;;11.38;86.49;101541.56;4988371;28;20242;-74
2021/08/17 00:54:48;;;;;;;40.00;13.52;;;;;;;11.43;86.30;101540.19;4996392;28;20034;-73
2021/08/17 00:57:14;;;;;;;43.20;15.38;;;;;;;11.47;86.24;101538.94;4989714;28;20046;-74
2021/08/17 00:59:41;;;;;;;45.70;14.52;;;;;;;11.43;86.58;101541.94;4979551;28;20033;-74
2021/08/17 01:02:07;;;;;;;47.05;14.88;;;;;;;11.49;86.55;101539.59;4997858;28;20091;-73
2021/08/17 01:04:33;;;;;;;46.42;14.60;;;;;;;11.46;86.73;101537.28;4983436;28;20041;-73
2021/08/17 01:07:02;;;;;;;40.58;14.52;;;;;;;11.44;86.72;101538.41;4996550;28;20475;-73
2021/08/17 01:09:27;;;;;;;39.65;15.10;;;;;;;11.56;86.69;101539.84;4979726;28;20098;-74
2021/08/17 01:11:54;;;;;;;47.97;15.98;;;;;;;11.47;86.79;101536.34;4992389;28;20041;-73
2021/08/17 01:14:20;;;;;;;55.92;18.08;;;;;;;11.53;86.91;101534.94;4991249;28;20446;-73
2021/08/17 01:16:47;;;;;;;53.97;17.30;;;;;;;11.44;86.86;101546.19;4998264;28;20480;-73
2021/08/17 01:19:13;;;;;;;48.63;16.98;;;;;;;11.43;87.38;101535.00;5007112;28;20033;-73
2021/08/17 01:21:39;;;;;;;50.88;17.92;;;;;;;11.45;87.63;101537.44;5003112;28;20033;-74
2021/08/17 01:24:05;;;;;;;57.58;17.50;;;;;;;11.51;87.56;101536.88;5004243;28;20029;-74
2021/08/17 01:26:31;;;;;;;58.95;19.60;;;;;;;11.54;86.94;101523.56;4984575;28;20084;-74
2021/08/17 01:28:57;;;;;;;56.85;19.65;;;;;;;11.52;87.20;101528.09;4976273;28;20479;-74
2021/08/17 01:31:24;;;;;;;53.60;19.48;;;;;;;11.49;87.27;101531.81;4973416;28;20042;-74
2021/08/17 01:33:50;;;;;;;55.40;20.02;;;;;;;11.56;86.80;101526.03;4982387;28;20030;-73
2021/08/17 01:36:15;;;;;;;52.72;19.50;;;;;;;11.50;87.07;101530.84;4997545;28;20093;-73
2021/08/17 01:38:51;;;;;;;54.10;17.92;;;;;;;11.42;87.34;101528.16;5003369;28;20025;-73
2021/08/17 01:41:17;;;;;;;62.80;20.23;;;;;;;11.41;87.87;101538.69;4999874;28;20045;-74
2021/08/17 01:43:44;;;;;;;62.53;21.45;;;;;;;11.44;87.62;101538.41;4961335;28;20077;-74
2021/08/17 01:46:10;;;;;;;59.15;21.20;;;;;;;11.42;87.63;101537.72;4999158;28;20430;-74
2021/08/17 01:48:36;;;;;;;66.22;19.95;;;;;;;11.39;87.72;101548.41;5003412;28;20034;-73
2021/08/17 01:51:02;;;;;;;54.65;19.90;;;;;;;11.41;87.30;101544.69;4994074;28;20157;-73
2021/08/17 01:53:29;;;;;;;58.10;21.40;;;;;;;11.45;87.28;101532.22;5002660;28;20042;-73
2021/08/17 01:55:56;;;;;;;62.72;21.20;;;;;;;11.45;87.06;101538.25;4992503;28;20034;-73
2021/08/17 01:58:25;;;;;;;70.57;22.60;;;;;;;11.43;87.32;101537.59;5000300;28;20045;-74
2021/08/17 02:00:51;;;;;;;65.72;20.75;;;;;;;11.36;87.42;101541.72;5002113;28;20052;-74
2021/08/17 02:03:16;;;;;;;64.07;21.00;;;;;;;11.35;87.58;101534.06;5006815;28;20487;-75
2021/08/17 02:05:42;;;;;;;60.03;21.42;;;;;;;11.37;87.87;101540.75;4990540;28;20030;-74
2021/08/17 02:08:09;;;;;;;58.85;19.73;;;;;;;11.35;87.78;101545.25;5005186;28;20033;-74
2021/08/17 02:10:35;;;;;;;68.22;23.27;;;;;;;11.37;87.49;101542.53;4986756;28;20057;-74
2021/08/17 02:13:01;;;;;;;61.95;20.17;;;;;;;11.33;87.65;101538.59;4998930;28;20032;-74
2021/08/17 02:15:26;;;;;;;58.08;20.83;;;;;;;11.35;87.76;101537.47;4996639;28;20034;-74
2021/08/17 02:17:51;;;;;;;69.50;23.55;;;;;;;11.34;87.50;101542.81;4999391;28;20025;-74
2021/08/17 02:20:17;;;;;;;70.78;24.10;;;;;;;11.31;87.76;101541.31;4998988;28;20292;-74
2021/08/17 02:22:43;;;;;;;56.20;19.95;;;;;;;11.28;87.96;101547.63;4991850;28;20038;-74
2021/08/17 02:25:09;;;;;;;67.28;21.73;;;;;;;11.31;87.39;101549.09;4990851;28;20037;-74
2021/08/17 02:27:35;;;;;;;62.72;21.70;;;;;;;11.30;87.51;101550.91;4995492;28;20042;-74
2021/08/17 02:30:05;;;;;;;68.90;22.92;;;;;;;11.33;87.52;101547.19;4997924;28;20073;-74
2021/08/17 02:32:31;;;;;;;66.45;22.67;;;;;;;11.30;87.51;101547.47;5005498;28;20125;-75
2021/08/17 02:34:57;;;;;;;65.85;22.83;;;;;;;11.26;87.55;101540.91;4982310;28;20041;-74
2021/08/17 02:37:23;;;;;;;66.25;21.17;;;;;;;11.21;87.54;101546.56;4989284;28;20033;-74
2021/08/17 02:39:49;;;;;;;67.13;21.83;;;;;;;11.20;88.02;101546.69;5003182;28;20038;-74
2021/08/17 02:42:14;;;;;;;63.10;22.02;;;;;;;11.23;87.74;101543.81;5007125;28;20034;-74
2021/08/17 02:44:39;;;;;;;68.43;20.67;;;;;;;11.21;87.96;101546.56;5000537;28;20033;-75
2021/08/17 02:47:05;;;;;;;58.92;21.25;;;;;;;11.25;87.29;101547.09;4992420;28;20037;-74
2021/08/17 02:49:32;;;;;;;57.80;20.15;;;;;;;11.24;87.63;101546.25;4979613;28;20039;-74
2021/08/17 02:52:05;;;;;;;62.67;22.25;;;;;;;11.21;87.84;101550.94;4995491;28;20316;-75
2021/08/17 02:54:31;;;;;;;67.25;21.95;;;;;;;11.20;87.99;101551.88;4986795;28;20234;-75
2021/08/17 02:56:57;;;;;;;58.13;20.88;;;;;;;11.17;87.70;101557.34;5002024;28;20033;-74
2021/08/17 02:59:22;;;;;;;61.25;22.02;;;;;;;11.21;87.56;101550.94;5002578;28;20064;-75
2021/08/17 03:01:47;;;;;;;58.88;20.98;;;;;;;11.17;87.65;101550.41;4982656;28;20645;-75
2021/08/17 03:04:13;;;;;;;54.55;20.55;;;;;;;11.15;87.90;101547.13;4999375;28;20050;-74
2021/08/17 03:06:38;;;;;;;54.55;20.27;;;;;;;11.14;88.08;101549.84;4996797;28;20029;-75
2021/08/17 03:09:04;;;;;;;61.72;22.08;;;;;;;11.12;88.10;101547.41;5003255;28;20039;-75
2021/08/17 03:11:30;;;;;;;61.65;19.60;;;;;;;11.12;88.00;101556.97;4975547;28;20052;-75
2021/08/17 03:13:57;;;;;;;56.95;21.08;;;;;;;11.13;87.92;101558.59;4989912;28;20033;-75
2021/08/17 03:16:23;;;;;;;63.45;20.27;;;;;;;11.12;87.71;101555.19;4990199;28;20046;-75
2021/08/17 03:18:49;;;;;;;69.65;25.02;;;;;;;11.22;87.54;101542.16;4979573;28;20036;-75
2021/08/17 03:21:14;;;;;;;58.38;21.20;;;;;;;11.15;87.53;101552.31;5002136;28;20030;-75
2021/08/17 03:23:41;;;;;;;58.38;21.20;;;;;;;11.15;87.46;101543.69;4986943;28;20037;-75
2021/08/17 03:26:06;;;;;;;57.40;20.52;;;;;;;11.10;87.60;101538.94;4972450;28;20018;-75
2021/08/17 03:28:32;;;;;;;59.78;22.45;;;;;;;11.14;87.83;101537.69;4986430;28;20034;-75
2021/08/17 03:30:58;;;;;;;68.10;23.08;;;;;;;11.08;87.99;101546.06;5005529;28;20037;-75
2021/08/17 03:33:23;;;;;;;56.72;22.45;;;;;;;11.15;88.00;101546.28;4993021;28;20140;-75
2021/08/17 03:35:49;;;;;;;60.95;21.00;;;;;;;11.09;88.05;101548.50;4989074;28;20045;-75
2021/08/17 03:38:14;;;;;;;64.13;21.17;;;;;;;11.12;88.32;101541.41;5004762;28;20022;-75
2021/08/17 03:40:40;;;;;;;61.53;21.95;;;;;;;11.14;88.54;101545.47;4986842;28;20030;-76
2021/08/17 03:43:06;;;;;;;60.53;21.40;;;;;;;11.11;88.20;101537.97;4974574;28;20158;-75
2021/08/17 03:45:32;;;;;;;64.93;22.33;;;;;;;11.17;88.17;101533.97;4975682;28;20031;-75
2021/08/17 03:47:58;;;;;;;62.72;20.95;;;;;;;11.15;88.52;101548.88;4966552;28;20057;-74
2021/08/17 03:50:24;;;;;;;65.07;21.92;;;;;;;11.14;88.51;101545.47;4997149;28;20209;-75
2021/08/17 03:52:49;;;;;;;62.08;21.00;;;;;;;11.12;88.82;101544.81;4992251;28;20406;-75
2021/08/17 03:55:14;;;;;;;67.10;22.42;;;;;;;11.10;89.18;101550.13;4970255;28;20033;-73
2021/08/17 03:57:40;;;;;;;65.65;22.35;;;;;;;11.24;88.86;101545.44;4986681;28;20038;-75
2021/08/17 04:00:12;;;;;;;66.07;21.75;;;;;;;11.26;88.69;101539.16;4998531;28;20221;-74
2021/08/17 04:02:38;;;;;;;60.90;21.80;;;;;;;11.26;89.02;101533.13;4987430;28;20096;-75
2021/08/17 04:05:06;;;;;;;73.93;21.25;;;;;;;11.21;89.30;101545.75;4992698;28;20034;-75
2021/08/17 04:07:31;;;;;;;62.88;22.40;;;;;;;11.29;89.12;101538.06;4992557;28;20048;-75
2021/08/17 04:09:57;;;;;;;65.85;22.13;;;;;;;11.32;89.26;101540.38;4987045;28;20033;-75
2021/08/17 04:12:23;;;;;;;72.38;22.55;;;;;;;11.32;89.59;101536.94;4999139;28;20053;-75
2021/08/17 04:14:49;;;;;;;70.43;22.08;;;;;;;11.42;88.90;101543.72;4989501;28;20037;-73
2021/08/17 04:17:14;;;;;;;70.93;22.80;;;;;;;11.43;88.70;101542.78;4992809;28;20045;-75
2021/08/17 04:19:40;;;;;;;65.25;20.95;;;;;;;11.44;88.66;101544.41;4981532;28;20026;-75
2021/08/17 04:22:06;;;;;;;65.93;21.00;;;;;;;11.43;88.93;101544.53;4982229;28;20546;-77
2021/08/17 04:24:32;;;;;;;60.50;21.00;;;;;;;11.48;88.80;101547.53;4993182;28;20030;-75
2021/08/17 04:26:57;;;;;;;78.45;22.55;;;;;;;11.49;89.06;101544.81;4992739;28;20609;-74
2021/08/17 04:29:23;;;;;;;59.08;23.10;;;;;;;11.52;89.44;101550.66;4988845;28;20125;-75
2021/08/17 04:31:48;;;;;;;69.00;22.05;;;;;;;11.57;88.86;101545.88;4984315;28;20025;-74
2021/08/17 04:34:14;;;;;;;75.20;22.23;;;;;;;11.53;89.04;101553.13;5001829;28;20045;-74
2021/08/17 04:36:39;;;;;;;61.47;20.75;;;;;;;11.59;89.04;101555.13;4975853;28;20034;-75
2021/08/17 04:39:05;;;;;;;73.32;22.88;;;;;;;11.61;88.87;101550.63;4990738;28;20038;-75
2021/08/17 04:41:30;;;;;;;60.95;21.77;;;;;;;11.57;89.17;101554.47;5005100;28;20033;-75
2021/08/17 04:43:56;;;;;;;68.30;22.00;;;;;;;11.55;89.31;101555.59;5003633;28;20057;-75
2021/08/17 04:46:21;;;;;;;69.53;22.52;;;;;;;11.53;89.68;101560.91;4986814;28;20029;-75
2021/08/17 04:48:49;;;;;;;57.80;20.33;;;;;;;11.68;89.05;101558.66;4976411;28;20031;-74
2021/08/17 04:51:14;;;;;;;66.40;23.00;;;;;;;11.63;88.89;101564.28;5001925;28;20052;-75
2021/08/17 04:53:40;;;;;;;63.10;20.35;;;;;;;11.76;88.57;101563.94;4978379;28;20064;-75
2021/08/17 04:56:06;;;;;;;70.65;21.92;;;;;;;11.79;88.67;101563.66;5000689;28;20033;-76
2021/08/17 04:58:32;;;;;;;65.63;20.67;;;;;;;11.78;88.38;101569.81;5003012;28;20083;-75
2021/08/17 05:00:57;;;;;;;67.32;21.42;;;;;;;11.73;88.63;101582.41;4987529;28;20022;-75
2021/08/17 05:03:23;;;;;;;64.13;21.27;;;;;;;11.75;88.63;101584.88;4992814;28;20041;-75
2021/08/17 05:05:49;;;;;;;62.13;19.63;;;;;;;11.81;88.99;101585.13;4985586;28;20034;-75
2021/08/17 05:08:14;;;;;;;67.90;22.77;;;;;;;11.90;88.77;101577.44;5007926;28;20045;-75
2021/08/17 05:10:40;;;;;;;68.93;21.63;;;;;;;11.89;88.07;101571.41;5003128;28;20052;-75
2021/08/17 05:13:05;;;;;;;61.53;21.50;;;;;;;12.02;88.13;101576.28;4996626;28;20037;-75
2021/08/17 05:15:32;;;;;;;68.85;22.65;;;;;;;11.98;87.77;101587.91;5007478;28;20025;-74
2021/08/17 05:17:58;;;;;;;64.20;21.58;;;;;;;11.98;88.29;101582.72;4987876;28;20322;-75
2021/08/17 05:20:24;;;;;;;67.50;21.95;;;;;;;11.95;88.21;101576.03;5013226;28;20115;-71
2021/08/17 05:22:50;;;;;;;58.97;21.02;;;;;;;11.90;87.93;101573.06;4986237;28;20508;-75
2021/08/17 05:25:16;;;;;;;55.92;20.92;;;;;;;11.93;88.30;101580.56;4968717;28;20297;-75
2021/08/17 05:27:42;;;;;;;61.00;21.90;;;;;;;11.87;88.19;101574.13;4964935;28;20033;-75
2021/08/17 05:30:09;;;;;;;68.18;22.48;;;;;;;11.93;88.46;101574.56;4999270;28;20355;-75
2021/08/17 05:32:34;;;;;;;58.95;20.88;;;;;;;11.99;88.19;101579.16;4992833;28;20038;-72
2021/08/17 05:35:00;;;;;;;79.40;25.75;;;;;;;12.01;87.95;101592.84;4967676;28;20119;-75
2021/08/17 05:37:25;;;;;;;62.40;20.08;;;;;;;12.01;88.37;101593.63;4995851;28;20038;-75
2021/08/17 05:39:51;;;;;;;65.90;22.05;;;;;;;11.99;88.36;101586.97;4996765;28;20407;-75
2021/08/17 05:42:16;;;;;;;69.95;22.05;;;;;;;12.11;88.44;101588.41;5000191;28;20046;-72
2021/08/17 05:44:43;;;;;;;64.03;22.05;;;;;;;12.26;88.05;101599.94;4984281;28;20037;-75
2021/08/17 05:47:09;;;;;;;64.15;21.50;;;;;;;12.24;87.84;101583.66;4983770;28;20069;-75
2021/08/17 05:49:38;;;;;;;68.47;23.92;;;;;;;12.34;87.57;101581.00;5004962;28;20038;-75
2021/08/17 05:52:09;;;;;;;60.40;21.63;;;;;;;12.35;87.29;101592.19;4995700;28;20361;-75
2021/08/17 05:54:35;;;;;;;66.07;23.85;;;;;;;12.36;87.61;101588.66;4985757;28;20091;-74
2021/08/17 05:57:01;;;;;;;68.03;21.85;;;;;;;12.55;87.33;101585.88;4986232;28;20033;-74
2021/08/17 05:59:27;;;;;;;62.75;21.58;;;;;;;12.64;86.65;101584.97;4999074;28;20053;-74
2021/08/17 06:01:55;;;;;;;61.30;21.75;;;;;;;12.59;86.73;101587.22;4997699;28;20524;-74
2021/08/17 06:04:21;;;;;;;69.72;22.55;;;;;;;12.69;86.70;101588.91;4999208;28;20030;-74
2021/08/17 06:06:47;;;;;;;59.33;21.77;;;;;;;12.82;86.38;101581.53;4998423;28;20037;-74
2021/08/17 06:09:13;;;;;;;73.25;23.02;;;;;;;12.84;86.09;101585.59;5001409;28;20121;-74
2021/08/17 06:11:38;;;;;;;65.00;20.75;;;;;;;12.96;85.42;101587.97;4960672;28;20113;-74
2021/08/17 06:14:04;;;;;;;70.57;21.23;;;;;;;13.09;85.03;101592.78;4982092;28;20038;-74
2021/08/17 06:16:29;;;;;;;55.63;19.77;;;;;;;13.18;85.04;101590.06;5003412;28;20034;-74
2021/08/17 06:18:55;;;;;;;56.10;21.27;;;;;;;13.11;85.37;101594.28;5004518;28;20023;-74
2021/08/17 06:21:20;;;;;;;60.42;21.15;;;;;;;13.13;85.68;101600.13;4999549;28;20034;-73
2021/08/17 06:23:46;;;;;;;57.92;20.77;;;;;;;13.30;85.18;101593.28;5001844;28;20033;-73
2021/08/17 06:26:12;;;;;;;64.07;20.52;;;;;;;13.35;84.96;101601.41;4981244;28;20671;-73
2021/08/17 06:28:37;;;;;;;58.92;21.33;;;;;;;13.44;84.91;101597.06;5000626;28;20030;-73
2021/08/17 06:31:04;;;;;;;52.33;21.58;;;;;;;13.46;85.02;101595.13;4996786;28;20141;-74
2021/08/17 06:33:29;;;;;;;69.40;22.00;;;;;;;13.67;84.87;101589.53;4995259;28;20400;-73
2021/08/17 06:35:55;;;;;;;64.18;20.00;;;;;;;13.91;83.86;101587.97;4986300;28;20117;-73
2021/08/17 06:38:20;;;;;;;66.90;22.48;;;;;;;14.14;82.79;101585.59;5012359;28;20443;-72
2021/08/17 06:40:45;;;;;;;64.38;20.05;;;;;;;14.23;82.45;101589.03;5018396;28;20033;-73
2021/08/17 06:43:11;;;;;;;50.28;18.98;;;;;;;14.33;82.06;101582.66;5003027;28;20044;-73
2021/08/17 06:45:36;;;;;;;59.35;19.70;;;;;;;14.46;81.95;101582.19;4993826;28;20057;-73
2021/08/17 06:48:02;;;;;;;53.95;19.73;;;;;;;14.49;81.28;101589.72;5015215;28;20123;-73
2021/08/17 06:50:27;;;;;;;57.90;21.40;;;;;;;14.45;81.40;101587.56;4993219;28;20396;-73
2021/08/17 06:52:53;;;;;;;61.58;19.35;;;;;;;14.50;81.68;101572.25;5012102;28;20026;-73
2021/08/17 06:55:18;;;;;;;50.08;17.95;;;;;;;14.40;81.87;101569.81;5008076;28;20521;-72
2021/08/17 06:57:44;;;;;;;59.53;22.17;;;;;;;14.39;81.84;101571.59;5013245;28;20021;-72
2021/08/17 07:00:10;;;;;;;47.67;19.65;;;;;;;14.43;81.76;101569.50;5004535;28;20041;-73
2021/08/17 07:02:36;;;;;;;45.95;18.35;;;;;;;14.49;81.42;101576.66;5005721;28;20072;-71
2021/08/17 07:05:03;;;;;;;48.65;17.77;;;;;;;14.53;81.26;101574.53;4999290;28;20080;-72
2021/08/17 07:07:29;;;;;;;51.63;19.88;;;;;;;14.70;80.89;101580.59;5010212;28;20038;-72
2021/08/17 07:09:54;;;;;;;58.72;21.85;;;;;;;14.64;80.89;101582.06;4998750;28;20029;-73
2021/08/17 07:12:20;;;;;;;48.55;19.70;;;;;;;14.78;80.03;101586.63;5006085;28;20146;-72
2021/08/17 07:14:45;;;;;;;49.17;18.85;;;;;;;15.28;79.16;101574.31;4989176;28;20030;-74
2021/08/17 07:17:11;;;;;;;48.85;19.35;;;;;;;15.33;77.79;101582.44;4988503;28;20385;-73
2021/08/17 07:19:36;;;;;;;49.85;18.92;;;;;;;15.07;78.58;101584.47;4994182;28;20072;-73
2021/08/17 07:22:02;;;;;;;57.58;20.58;;;;;;;15.05;78.84;101589.88;4994813;28;20034;-72
2021/08/17 07:24:29;;;;;;;51.72;18.85;;;;;;;14.82;79.14;101587.09;4986824;28;20435;-72
2021/08/17 07:26:54;;;;;;;52.85;20.52;;;;;;;14.78;79.39;101588.41;4998205;28;20061;-72
2021/08/17 07:29:20;;;;;;;49.80;21.27;;;;;;;14.72;79.65;101586.47;5000544;28;20073;-73
2021/08/17 07:31:46;;;;;;;55.40;21.45;;;;;;;14.70;79.57;101593.66;4985731;28;20052;-74
2021/08/17 07:34:12;;;;;;;54.40;20.38;;;;;;;14.65;79.18;101580.28;5001255;28;20073;-73
2021/08/17 07:36:38;;;;;;;54.72;19.92;;;;;;;14.74;79.07;101587.94;4998011;28;20052;-73
2021/08/17 07:39:05;;;;;;;52.60;19.98;;;;;;;15.07;78.46;101572.25;4989858;28;20039;-72
2021/08/17 07:41:31;;;;;;;46.38;20.40;;;;;;;15.36;77.72;101565.63;4988089;28;20026;-72
2021/08/17 07:43:56;;;;;;;50.88;21.23;;;;;;;15.62;77.21;101565.34;5009730;28;20053;-73
2021/08/17 07:46:22;;;;;;;43.75;20.63;;;;;;;15.74;76.97;101571.03;5005713;28;20026;-72
2021/08/17 07:48:48;;;;;;;50.13;20.42;;;;;;;15.83;76.32;101571.81;4997859;28;20243;-72
2021/08/17 07:51:14;;;;;;;48.47;19.80;;;;;;;15.93;75.15;101577.63;5009229;28;20120;-73
2021/08/17 07:53:40;;;;;;;51.15;20.42;;;;;;;16.23;74.52;101585.63;5009539;28;20128;-73
2021/08/17 07:56:05;;;;;;;46.33;19.70;;;;;;;16.28;74.37;101578.88;5017875;28;20040;-73
2021/08/17 07:58:31;;;;;;;48.72;20.13;;;;;;;16.23;74.63;101577.78;4988956;28;20237;-72
2021/08/17 08:00:56;;;;;;;42.88;18.77;;;;;;;16.20;74.50;101581.56;5001805;28;20073;-72
2021/08/17 08:03:22;;;;;;;47.45;18.13;;;;;;;16.12;74.56;101587.66;4998170;28;20030;-72
2021/08/17 08:05:48;;;;;;;44.92;18.02;;;;;;;16.00;75.86;101590.84;4997342;28;20443;-73
2021/08/17 08:08:13;;;;;;;40.20;16.58;;;;;;;16.07;75.63;101594.41;5002667;28;20458;-73
2021/08/17 08:10:39;;;;;;;40.70;16.98;;;;;;;16.02;75.47;101600.13;4999041;28;20049;-73
2021/08/17 08:13:04;;;;;;;44.50;17.55;;;;;;;16.13;74.95;101591.91;4999598;28;20038;-73
2021/08/17 08:15:30;;;;;;;37.78;14.85;;;;;;;16.20;74.67;101578.13;4996717;28;20435;-73
2021/08/17 08:17:55;;;;;;;43.88;16.77;;;;;;;15.99;75.88;101576.94;4996711;28;20073;-74
2021/08/17 08:20:21;;;;;;;36.55;15.27;;;;;;;16.08;74.36;101562.00;4991013;28;20026;-72
2021/08/17 08:22:48;;;;;;;40.80;16.35;;;;;;;15.95;74.94;101568.66;4999178;28;20370;-72
2021/08/17 08:25:14;;;;;;;33.45;15.73;;;;;;;16.12;75.05;101565.91;4995268;28;20030;-73
2021/08/17 08:27:39;;;;;;;35.90;15.25;;;;;;;16.54;73.16;101557.56;4977442;28;20029;-72
2021/08/17 08:30:06;;;;;;;39.67;14.95;;;;;;;16.87;71.88;101559.91;4993668;28;20041;-72
2021/08/17 08:32:32;;;;;;;40.88;15.15;;;;;;;17.16;70.49;101552.25;4962551;28;20288;-72
2021/08/17 08:34:57;;;;;;;31.40;13.55;;;;;;;17.28;70.75;101554.22;4983284;28;20026;-72
2021/08/17 08:37:23;;;;;;;43.25;14.90;;;;;;;17.13;71.50;101562.09;4982523;28;20042;-72
2021/08/17 08:39:48;;;;;;;36.60;15.25;;;;;;;17.09;70.17;101567.91;4974352;28;20027;-73
2021/08/17 08:42:14;;;;;;;42.50;15.20;;;;;;;17.13;70.77;101569.16;4999438;28;20084;-73
2021/08/17 08:44:40;;;;;;;34.90;14.63;;;;;;;17.24;69.03;101576.56;5002600;28;20535;-72
2021/08/17 08:47:05;;;;;;;39.55;16.23;;;;;;;17.54;67.84;101562.59;4980356;28;20035;-75
2021/08/17 08:49:32;;;;;;;35.95;12.95;;;;;;;17.94;68.69;101568.34;4996179;28;20655;-73
2021/08/17 08:52:00;;;;;;;34.08;14.05;;;;;;;18.05;67.85;101570.47;4984246;28;20095;-74
2021/08/17 08:54:25;;;;;;;30.73;13.30;;;;;;;17.93;67.29;101570.13;4976301;28;20143;-73
2021/08/17 08:56:51;;;;;;;35.83;14.52;;;;;;;17.86;67.56;101587.63;4972113;28;20041;-73
2021/08/17 08:59:16;;;;;;;29.67;13.07;;;;;;;17.88;66.92;101589.06;4995031;28;20026;-72
2021/08/17 09:01:45;;;;;;;37.17;13.65;;;;;;;18.18;67.10;101596.84;4994478;28;20037;-74
2021/08/17 09:04:13;;;;;;;32.22;13.65;;;;;;;18.51;65.29;101590.28;4988611;28;20132;-73
2021/08/17 09:06:39;;;;;;;28.58;12.38;;;;;;;19.07;62.32;101577.16;5011169;28;20519;-72
2021/08/17 09:09:16;;;;;;;29.65;12.48;;;;;;;18.68;65.30;101581.09;4987264;28;20035;-73
2021/08/17 09:11:44;;;;;;;25.88;11.68;;;;;;;18.35;64.52;101584.28;4985756;28;20455;-73
2021/08/17 09:14:31;;;;;;;29.98;12.02;;;;;;;18.04;65.09;101574.09;5000845;28;20073;-73
2021/08/17 09:16:58;;;;;;;26.98;11.43;;;;;;;17.97;65.82;101578.44;5011141;28;20120;-73
2021/08/17 09:19:28;;;;;;;34.90;13.18;;;;;;;17.57;66.88;101576.16;4993575;28;20420;-74
2021/08/17 09:21:55;;;;;;;29.88;11.48;;;;;;;17.31;66.08;101566.97;4983260;28;20111;-72
2021/08/17 09:24:22;;;;;;;27.27;11.32;;;;;;;17.27;66.78;101562.28;4999844;28;20038;-72
2021/08/17 09:26:54;;;;;;;24.88;11.07;;;;;;;17.35;65.88;101571.84;4977403;28;20079;-72
2021/08/17 09:29:25;;;;;;;33.65;12.88;;;;;;;17.35;67.11;101553.50;4993540;28;20060;-73
2021/08/17 09:31:53;;;;;;;24.95;11.35;;;;;;;17.26;66.51;101560.66;5003234;28;20452;-72
2021/08/17 09:34:19;;;;;;;27.83;12.63;;;;;;;17.16;67.41;101558.31;4994941;28;20411;-72
2021/08/17 09:36:45;;;;;;;28.23;11.73;;;;;;;17.33;66.62;101548.47;5005726;28;20542;-74
2021/08/17 09:39:25;;;;;;;24.55;11.63;;;;;;;17.23;67.01;101545.28;4960130;28;20038;-71
2021/08/17 09:41:51;;;;;;;24.83;11.77;;;;;;;17.43;66.33;101556.03;5008673;28;20605;-72
2021/08/17 09:44:19;;;;;;;28.23;11.80;;;;;;;17.21;66.53;101550.72;4999793;28;20060;-72
2021/08/17 09:46:44;;;;;;;30.98;13.07;;;;;;;17.27;67.29;101549.16;5005731;28;20026;-74
2021/08/17 09:49:29;;;;;;;27.65;11.95;;;;;;;17.32;66.16;101555.50;5003367;28;20389;-72
2021/08/17 09:52:05;;;;;;;30.20;11.80;;;;;;;17.25;64.79;101554.63;4997954;28;20550;-73
2021/08/17 09:54:31;;;;;;;28.33;11.27;;;;;;;17.22;66.01;101564.66;4999467;28;20038;-72
2021/08/17 09:57:02;;;;;;;27.58;11.15;;;;;;;17.06;66.36;101568.25;5006286;28;20395;-72
2021/08/17 09:59:30;;;;;;;28.65;12.10;;;;;;;17.14;67.06;101578.66;5019767;28;20509;-73
2021/08/17 10:01:58;;;;;;;27.60;12.05;;;;;;;17.01;66.87;101588.91;4997483;28;20488;-72
2021/08/17 10:04:23;;;;;;;24.85;10.63;;;;;;;17.08;67.28;101589.84;4993276;28;20033;-72
2021/08/17 10:06:54;;;;;;;24.55;11.40;;;;;;;17.23;66.88;101592.47;5000421;28;20084;-73
2021/08/17 10:09:21;;;;;;;26.35;12.00;;;;;;;17.30;66.48;101598.63;5014436;28;20038;-70
2021/08/17 10:11:46;;;;;;;22.20;10.40;;;;;;;17.19;66.96;101573.66;4998167;28;20030;-72
2021/08/17 10:14:14;;;;;;;29.42;11.90;;;;;;;17.13;67.87;101563.91;5004387;28;20049;-72
2021/08/17 10:16:43;;;;;;;30.92;11.05;;;;;;;17.06;67.86;101571.66;4987550;28;20092;-72
2021/08/17 10:19:10;;;;;;;24.05;10.38;;;;;;;17.01;67.30;101565.34;4981888;28;20347;-72
2021/08/17 10:21:40;;;;;;;25.98;11.20;;;;;;;16.94;66.95;101562.63;5004029;28;20040;-72
2021/08/17 10:24:34;;;;;;;25.25;11.55;;;;;;;16.87;67.12;101573.00;4990024;28;20038;-72
2021/08/17 10:27:21;;;;;;;26.08;11.15;;;;;;;16.83;67.23;101569.13;5012970;28;20335;-72
2021/08/17 10:30:16;;;;;;;20.17;10.20;;;;;;;16.97;67.46;101567.53;4985684;28;20344;-73
2021/08/17 10:32:51;;;;;;;24.42;10.25;;;;;;;16.96;67.41;101563.28;5011112;28;20038;-73
2021/08/17 10:35:29;;;;;;;29.60;10.80;;;;;;;17.03;66.86;101556.31;4990295;28;20044;-73
2021/08/17 10:38:06;;;;;;;26.25;10.93;;;;;;;17.10;67.38;101559.84;4990108;28;20435;-73
2021/08/17 10:40:53;;;;;;;27.55;11.02;;;;;;;17.05;68.63;101550.91;4995930;28;20038;-74
2021/08/17 10:43:38;;;;;;;27.25;11.00;;;;;;;17.08;67.36;101543.50;4999960;28;20045;-71
2021/08/17 10:46:06;;;;;;;24.10;10.10;;;;;;;16.90;66.71;101556.13;4999727;28;20076;-72
2021/08/17 10:48:44;;;;;;;22.55;9.63;;;;;;;16.87;67.33;101548.63;4995134;28;20034;-74
2021/08/17 10:51:30;;;;;;;22.42;9.85;;;;;;;16.89;67.32;101552.69;4973588;28;20042;-73
2021/08/17 10:54:05;;;;;;;20.77;9.38;;;;;;;16.83;67.63;101549.97;4991849;28;20046;-72
2021/08/17 10:56:38;;;;;;;23.77;10.13;;;;;;;16.86;66.63;101550.44;5011396;28;20072;-73
2021/08/17 10:59:05;;;;;;;20.63;9.73;;;;;;;16.82;66.69;101556.16;4990124;28;20034;-73
2021/08/17 11:01:30;;;;;;;27.02;9.25;;;;;;;16.72;67.32;101553.81;4990441;28;20480;-72
2021/08/17 11:04:18;;;;;;;21.90;8.73;;;;;;;16.57;67.30;101553.78;4988242;28;20136;-72
2021/08/17 11:06:48;;;;;;;17.27;8.98;;;;;;;16.54;66.91;101564.63;5000942;28;20045;-72
2021/08/17 11:09:18;;;;;;;17.40;8.23;;;;;;;16.54;67.54;101559.38;4999342;28;20061;-72